Mid Fortune — ZGCG8 — position and weather

sailwx.info

Track history (hours):
 
Tides and Currents Weather Stations Pressure Air Temp Water Temp Dewpoint Dewpoint Depression Visibility Wind Speed Wind Dir Waves Ship Positions

Mid Fortune

Last reported at 2016-May-16 17:32 UTC. Time now 2016-May-29 09:43 UTC.
Position N 35°53' E 016°09'.
Warning: this ship's position is 12 days out of date.

Length 147 m; draft 9.7 m.

Type: Tanker. MMSI: 319182000.

Date/timePositionNaut miles runAvg speedWind from/ knotsBaromVisibWave heightAir tempDewpointWater temp
2016-May-16 17:32N 35°53' E 016°09'1413.1
2016-May-16 16:30N 35°57' E 015°53'1413.2
2016-May-16 15:28N 36°00' E 015°37'3913.3
2016-May-16 12:33N 36°12' E 014°51'1313.1
2016-May-16 11:33N 36°16' E 014°36'1312.9
2016-May-16 10:33N 36°20' E 014°21'1313.2
2016-May-16 09:33N 36°25' E 014°05'1313.1
2016-May-16 08:33N 36°29' E 013°50'1513.7
2016-May-16 07:28N 36°35' E 013°33'1314.1
2016-May-16 06:33N 36°39' E 013°17'  
2016-May-13 09:06N 36°00' W 005°11'915.6
2016-May-13 08:33N 35°59' W 005°22'  
2016-May-07 05:30N 35°59' W 005°33'8 8.8
2016-May-07 04:33N 36°01' W 005°23'  
Track history (hours):
 
Tides and Currents Weather Stations Pressure Air Temp Water Temp Dewpoint Dewpoint Depression Visibility Wind Speed Wind Dir Waves Ship Positions

Mid Fortune

Last reported at 2016-May-16 17:32 UTC. Time now 2016-May-29 09:43 UTC.
Position N 35°53' E 016°09'.
Warning: this ship's position is 12 days out of date.

Length 147 m; draft 9.7 m.

Type: Tanker. MMSI: 319182000.

Date/timePositionNaut miles runAvg speedWind from/ knotsBaromVisibWave heightAir tempDewpointWater temp
2016-May-16 17:32N 35°53' E 016°09'1413.1
2016-May-16 16:30N 35°57' E 015°53'1413.2
2016-May-16 15:28N 36°00' E 015°37'3913.3
2016-May-16 12:33N 36°12' E 014°51'1313.1
2016-May-16 11:33N 36°16' E 014°36'1312.9
2016-May-16 10:33N 36°20' E 014°21'1313.2
2016-May-16 09:33N 36°25' E 014°05'1313.1
2016-May-16 08:33N 36°29' E 013°50'1513.7
2016-May-16 07:28N 36°35' E 013°33'1314.1
2016-May-16 06:33N 36°39' E 013°17'  
2016-May-13 09:06N 36°00' W 005°11'915.6
2016-May-13 08:33N 35°59' W 005°22'  
2016-May-07 05:30N 35°59' W 005°33'8 8.8
2016-May-07 04:33N 36°01' W 005°23'  

Dump ship's entire track history